Time;durP1;ratioP1;P1;durP2;ratioP2;P2;SDS_P1;SDS_P2;PMS_P1;PMS_P2;Temp;Humidity;BMP_temperature;BMP_pressure;BME280_temperature;BME280_humidity;BME280_pressure;Samples;Min_cycle;Max_cycle;Signal;HPM_P1;HPM_P2
2021/04/03 00:01:48;;;;;;;27.43;3.90;;;7.00;73.80;;;;;;4937012;29;20027;-89
2021/04/03 00:04:14;;;;;;;18.97;2.90;;;7.00;73.80;;;;;;4937562;29;20074;-91
2021/04/03 00:06:39;;;;;;;22.93;3.30;;;7.00;73.70;;;;;;4936367;29;20023;-90
2021/04/03 00:09:05;;;;;;;16.40;3.60;;;7.10;73.60;;;;;;4939273;29;20481;-89
2021/04/03 00:11:31;;;;;;;19.77;4.07;;;7.00;73.40;;;;;;4939968;29;20027;-90
2021/04/03 00:13:56;;;;;;;20.70;3.40;;;7.00;73.50;;;;;;4939589;29;20030;-90
2021/04/03 00:16:22;;;;;;;19.70;3.77;;;7.00;73.30;;;;;;4936958;29;20035;-90
2021/04/03 00:18:47;;;;;;;21.43;3.03;;;7.10;73.20;;;;;;4937319;29;20035;-90
2021/04/03 00:21:13;;;;;;;19.57;3.40;;;7.10;73.10;;;;;;4937304;29;20419;-90
2021/04/03 00:23:39;;;;;;;16.87;3.17;;;7.10;72.90;;;;;;4937257;29;20024;-89
2021/04/03 00:26:04;;;;;;;21.63;3.30;;;7.20;72.80;;;;;;4936363;29;20111;-90
2021/04/03 00:28:30;;;;;;;18.57;2.83;;;7.20;72.70;;;;;;4936662;29;20118;-90
2021/04/03 00:30:56;;;;;;;19.57;2.90;;;7.20;72.50;;;;;;4936355;29;20481;-89
2021/04/03 00:33:21;;;;;;;18.13;3.53;;;7.20;72.60;;;;;;4936220;29;20042;-90
2021/04/03 00:35:47;;;;;;;20.93;3.70;;;7.20;72.40;;;;;;4935742;29;20042;-89
2021/04/03 00:38:13;;;;;;;18.13;3.53;;;7.20;72.40;;;;;;4936529;29;20027;-90
2021/04/03 00:40:38;;;;;;;17.23;2.83;;;7.10;72.30;;;;;;4935966;29;20035;-89
2021/04/03 00:43:12;;;;;;;17.57;3.03;;;7.20;72.40;;;;;;4935962;29;20032;-89
2021/04/03 00:45:38;;;;;;;21.00;3.43;;;7.10;72.30;;;;;;4935720;29;20036;-90
2021/04/03 00:48:05;;;;;;;21.73;3.57;;;7.10;72.30;;;;;;4935940;29;20122;-89
2021/04/03 00:50:34;;;;;;;18.50;2.97;;;7.10;72.20;;;;;;4937721;29;20027;-89
2021/04/03 00:53:00;;;;;;;19.40;3.65;;;7.10;72.20;;;;;;4939945;29;20517;-90
2021/04/03 00:55:25;;;;;;;19.27;3.30;;;7.00;72.30;;;;;;4941523;29;20059;-89
2021/04/03 00:57:52;;;;;;;15.90;3.50;;;7.00;72.30;;;;;;4940745;29;20201;-90
2021/04/03 01:00:18;;;;;;;20.10;3.53;;;7.10;72.40;;;;;;4945725;29;20379;-90
2021/04/03 01:02:44;;;;;;;17.40;3.30;;;7.10;72.40;;;;;;4952165;29;20044;-89
2021/04/03 01:05:16;;;;;;;19.83;3.43;;;7.10;72.30;;;;;;4957051;29;20016;-89
2021/04/03 01:07:41;;;;;;;19.50;3.30;;;7.00;72.20;;;;;;4955725;29;20055;-89
2021/04/03 01:10:08;;;;;;;15.73;2.77;;;7.10;72.30;;;;;;4951530;29;20443;-90
2021/04/03 01:13:06;;;;;;;17.37;3.23;;;7.00;72.20;;;;;;4936132;29;20156;-89
2021/04/03 01:15:37;;;;;;;20.37;3.53;;;7.00;72.20;;;;;;4936015;29;20028;-89
2021/04/03 01:18:24;;;;;;;22.13;3.53;;;7.00;72.20;;;;;;4934713;29;20035;-89
2021/04/03 01:21:15;;;;;;;19.70;3.20;;;7.00;72.20;;;;;;4935834;29;20484;-91
2021/04/03 01:23:41;;;;;;;22.17;3.10;;;7.00;72.20;;;;;;4932035;29;20043;-90
2021/04/03 01:26:06;;;;;;;20.17;2.93;;;7.00;72.20;;;;;;4916174;29;20028;-90
2021/04/03 01:28:56;;;;;;;18.17;2.90;;;6.90;72.50;;;;;;4915801;29;20087;-90
2021/04/03 01:31:22;;;;;;;25.90;4.17;;;6.90;72.40;;;;;;4916085;29;20024;-89
2021/04/03 01:33:53;;;;;;;20.07;2.97;;;6.80;72.40;;;;;;4915940;29;20020;-90
2021/04/03 01:36:21;;;;;;;21.77;3.37;;;6.80;72.40;;;;;;4915566;29;20024;-89
2021/04/03 01:38:59;;;;;;;17.80;3.75;;;6.80;72.40;;;;;;4916826;29;20028;-89
2021/04/03 01:41:27;;;;;;;23.77;3.37;;;6.80;72.60;;;;;;4915708;29;20029;-89
2021/04/03 01:43:54;;;;;;;13.43;2.90;;;6.80;72.50;;;;;;4914969;29;20028;-91
2021/04/03 01:46:26;;;;;;;21.77;3.20;;;6.80;72.60;;;;;;4916877;29;20055;-88
2021/04/03 01:48:54;;;;;;;19.17;3.03;;;6.70;72.60;;;;;;4936659;29;20034;-90
2021/04/03 01:51:20;;;;;;;22.67;3.30;;;6.70;72.80;;;;;;4935154;29;20075;-89
2021/04/03 01:53:47;;;;;;;20.37;3.60;;;6.80;72.60;;;;;;4934251;29;20083;-90
2021/04/03 01:56:15;;;;;;;20.33;3.40;;;6.70;72.60;;;;;;4933918;29;20063;-90
2021/04/03 01:58:42;;;;;;;24.77;4.83;;;6.70;72.60;;;;;;4933256;29;20042;-89
2021/04/03 02:01:09;;;;;;;19.50;4.20;;;6.70;72.70;;;;;;4934107;29;20309;-90
2021/04/03 02:03:35;;;;;;;20.90;2.80;;;6.60;72.70;;;;;;4934054;29;20032;-90
2021/04/03 02:06:05;;;;;;;21.77;3.17;;;6.60;72.70;;;;;;4934134;29;20069;-90
2021/04/03 02:08:32;;;;;;;19.20;2.50;;;6.60;72.70;;;;;;4934346;29;20123;-89
2021/04/03 02:11:01;;;;;;;17.37;3.47;;;6.60;72.70;;;;;;4934548;29;20118;-89
2021/04/03 02:13:32;;;;;;;19.95;3.20;;;6.60;72.70;;;;;;4934477;29;20069;-88
2021/04/03 02:16:04;;;;;;;18.77;3.57;;;6.60;72.70;;;;;;4934647;29;20402;-89
2021/04/03 02:18:32;;;;;;;14.43;3.10;;;6.60;72.70;;;;;;4934707;29;20028;-88
2021/04/03 02:21:05;;;;;;;21.40;3.77;;;6.60;72.70;;;;;;4935667;29;20038;-90
2021/04/03 02:23:34;;;;;;;20.10;3.30;;;6.60;72.80;;;;;;4935433;29;20027;-90
2021/04/03 02:26:01;;;;;;;17.77;2.77;;;6.50;72.90;;;;;;4949867;29;20028;-87
2021/04/03 02:28:26;;;;;;;21.27;2.93;;;6.50;72.80;;;;;;4954600;29;20043;-88
2021/04/03 02:30:53;;;;;;;19.40;3.13;;;6.50;73.00;;;;;;4971055;29;20039;-89
2021/04/03 02:33:19;;;;;;;19.53;3.20;;;6.40;73.50;;;;;;4963061;29;20171;-90
2021/04/03 02:35:45;;;;;;;24.53;3.97;;;6.50;73.10;;;;;;4950910;29;20466;-88
2021/04/03 02:38:12;;;;;;;16.93;3.17;;;6.50;73.30;;;;;;4954114;29;20393;-89
2021/04/03 02:40:38;;;;;;;19.90;3.70;;;6.40;73.00;;;;;;4935783;29;20182;-90
2021/04/03 02:43:18;;;;;;;20.47;3.33;;;6.50;73.00;;;;;;4938635;29;20485;-89
2021/04/03 02:45:52;;;;;;;23.23;3.50;;;6.40;73.00;;;;;;4937502;29;20091;-89
2021/04/03 02:48:19;;;;;;;27.30;3.90;;;6.40;73.00;;;;;;4936397;29;20020;-90
2021/04/03 02:50:50;;;;;;;19.93;3.80;;;6.40;73.00;;;;;;4933849;29;20020;-89
2021/04/03 02:53:18;;;;;;;19.77;3.33;;;6.40;73.00;;;;;;4933841;29;20023;-91
2021/04/03 02:55:47;;;;;;;20.27;4.00;;;6.40;73.10;;;;;;4933868;29;20027;-90
2021/04/03 02:58:19;;;;;;;19.35;3.30;;;6.40;73.20;;;;;;4934355;29;20568;-90
2021/04/03 03:00:51;;;;;;;21.37;3.67;;;6.30;73.20;;;;;;4937325;29;20036;-90
2021/04/03 03:03:19;;;;;;;18.83;3.10;;;6.30;73.30;;;;;;4936508;29;20044;-90
2021/04/03 03:05:46;;;;;;;20.50;3.38;;;6.30;73.20;;;;;;4934258;29;20035;-91
2021/04/03 03:08:14;;;;;;;22.73;3.77;;;6.30;73.20;;;;;;4933985;29;20028;-89
2021/04/03 03:10:41;;;;;;;19.77;3.13;;;6.30;73.30;;;;;;4934439;29;20066;-90
2021/04/03 03:13:08;;;;;;;21.10;3.77;;;6.20;73.40;;;;;;4937829;29;20047;-88
2021/04/03 03:15:34;;;;;;;19.50;3.00;;;6.30;73.50;;;;;;4937679;29;20035;-90
2021/04/03 03:18:01;;;;;;;17.13;3.83;;;6.30;73.50;;;;;;4937875;29;20032;-89
2021/04/03 03:20:27;;;;;;;24.73;3.23;;;6.30;73.40;;;;;;4939041;29;20035;-91
2021/04/03 03:22:54;;;;;;;20.53;3.30;;;6.20;73.40;;;;;;4937713;29;20024;-90
2021/04/03 03:25:19;;;;;;;19.13;3.23;;;6.30;73.40;;;;;;4937447;29;20379;-89
2021/04/03 03:27:46;;;;;;;17.57;2.70;;;6.30;73.60;;;;;;4936647;29;20027;-90
2021/04/03 03:30:15;;;;;;;20.67;4.03;;;6.30;73.40;;;;;;4937111;29;20027;-90
2021/04/03 03:32:41;;;;;;;21.40;3.70;;;6.30;73.30;;;;;;4936484;29;20024;-90
2021/04/03 03:35:07;;;;;;;24.63;4.10;;;6.30;73.30;;;;;;4936893;29;20040;-90
2021/04/03 03:37:34;;;;;;;17.67;2.90;;;6.30;73.30;;;;;;4937855;29;20027;-90
2021/04/03 03:40:01;;;;;;;20.83;3.83;;;6.30;73.30;;;;;;4937815;29;20067;-90
2021/04/03 03:42:27;;;;;;;19.10;3.17;;;6.30;73.50;;;;;;4936983;29;20442;-89
2021/04/03 03:44:54;;;;;;;16.03;2.80;;;6.30;73.50;;;;;;4936570;29;20039;-89
2021/04/03 03:47:20;;;;;;;21.30;3.63;;;6.30;73.40;;;;;;4938732;29;20062;-89
2021/04/03 03:49:45;;;;;;;25.17;3.40;;;6.30;73.40;;;;;;4937381;29;20028;-89
2021/04/03 03:52:11;;;;;;;22.20;4.00;;;6.30;73.40;;;;;;4938255;29;20028;-90
2021/04/03 03:54:36;;;;;;;25.63;5.00;;;6.30;73.60;;;;;;4937720;29;20385;-90
2021/04/03 03:57:03;;;;;;;20.83;3.37;;;6.40;73.50;;;;;;4924566;29;20036;-89
2021/04/03 03:59:29;;;;;;;25.73;4.50;;;6.30;73.50;;;;;;4920069;29;20079;-90
2021/04/03 04:01:55;;;;;;;26.03;4.37;;;6.30;74.20;;;;;;4919120;29;20032;-89
2021/04/03 04:04:21;;;;;;;24.03;3.83;;;6.30;73.60;;;;;;4922033;29;20131;-89
2021/04/03 04:06:47;;;;;;;29.73;4.00;;;6.30;73.60;;;;;;4918720;29;20032;-90
2021/04/03 04:09:13;;;;;;;26.57;5.37;;;6.30;74.30;;;;;;4921431;29;20061;-89
2021/04/03 04:11:38;;;;;;;23.20;4.63;;;6.30;74.40;;;;;;4919352;29;20130;-90
2021/04/03 04:14:04;;;;;;;26.77;4.50;;;6.30;73.90;;;;;;4918137;29;20038;-89
2021/04/03 04:16:30;;;;;;;23.63;3.87;;;6.30;75.30;;;;;;4926427;29;20038;-90
2021/04/03 04:18:55;;;;;;;25.90;4.33;;;6.30;74.10;;;;;;4938759;29;20034;-90
2021/04/03 04:21:21;;;;;;;30.53;5.27;;;6.30;74.10;;;;;;4938476;29;20095;-90
2021/04/03 04:23:47;;;;;;;25.93;4.90;;;6.30;74.10;;;;;;4934491;29;20032;-90
2021/04/03 04:26:13;;;;;;;26.23;5.10;;;6.30;74.50;;;;;;4917678;29;20044;-89
2021/04/03 04:28:39;;;;;;;24.33;4.23;;;6.30;74.20;;;;;;4917874;29;20501;-89
2021/04/03 04:31:07;;;;;;;25.47;4.73;;;6.20;74.40;;;;;;4917005;29;20028;-89
2021/04/03 04:33:33;;;;;;;28.02;5.50;;;6.30;74.60;;;;;;4916944;29;20036;-90
2021/04/03 04:35:59;;;;;;;30.80;4.87;;;6.30;74.50;;;;;;4916131;29;20043;-90
2021/04/03 04:38:24;;;;;;;30.83;4.97;;;6.30;74.60;;;;;;4916733;29;20115;-89
2021/04/03 04:40:50;;;;;;;29.93;5.50;;;6.20;74.60;;;;;;4916324;29;20059;-89
2021/04/03 04:43:22;;;;;;;29.27;5.00;;;6.20;74.70;;;;;;4916447;29;20055;-90
2021/04/03 04:45:48;;;;;;;29.13;5.57;;;6.20;75.10;;;;;;4915968;29;20067;-89
2021/04/03 04:48:14;;;;;;;25.07;4.80;;;6.20;74.90;;;;;;4916757;29;20119;-89
2021/04/03 04:50:40;;;;;;;33.70;4.87;;;6.20;75.40;;;;;;4916523;29;20486;-89
2021/04/03 04:53:09;;;;;;;28.30;5.30;;;6.10;75.40;;;;;;4917083;29;20059;-90
2021/04/03 04:55:34;;;;;;;31.98;5.20;;;6.20;75.30;;;;;;4916856;29;20068;-88
2021/04/03 04:58:00;;;;;;;26.23;5.17;;;6.10;75.30;;;;;;4940429;29;20031;-89
2021/04/03 05:00:26;;;;;;;28.43;6.00;;;6.10;75.40;;;;;;4940152;29;20190;-90
2021/04/03 05:02:52;;;;;;;29.90;5.63;;;6.10;75.50;;;;;;4940336;29;20039;-88
2021/04/03 05:05:17;;;;;;;32.47;5.57;;;6.20;75.70;;;;;;4947756;29;20046;-88
2021/04/03 05:07:43;;;;;;;26.53;5.33;;;6.10;76.20;;;;;;4949498;29;20019;-89
2021/04/03 05:10:09;;;;;;;27.27;5.03;;;6.20;75.60;;;;;;4953955;29;20466;-88
2021/04/03 05:12:35;;;;;;;32.57;5.93;;;6.20;75.60;;;;;;4948985;29;20054;-90
2021/04/03 05:15:01;;;;;;;28.87;6.00;;;6.20;75.80;;;;;;4935736;29;20040;-90
2021/04/03 05:17:26;;;;;;;29.57;5.60;;;6.20;75.50;;;;;;4935970;29;20463;-89
2021/04/03 05:19:52;;;;;;;33.00;6.30;;;6.20;75.60;;;;;;4935485;29;20075;-90
2021/04/03 05:22:17;;;;;;;35.47;5.93;;;6.20;75.70;;;;;;4935363;29;20118;-89
2021/04/03 05:24:43;;;;;;;31.30;6.07;;;6.10;75.80;;;;;;4934871;29;20036;-90
2021/04/03 05:27:09;;;;;;;32.43;7.10;;;6.10;76.00;;;;;;4934756;29;20219;-90
2021/04/03 05:29:34;;;;;;;28.53;5.70;;;6.10;76.10;;;;;;4936148;29;20038;-91
2021/04/03 05:32:00;;;;;;;28.90;5.97;;;6.20;77.10;;;;;;4935454;29;20032;-90
2021/04/03 05:34:25;;;;;;;27.37;5.90;;;6.20;76.10;;;;;;4936280;29;20031;-89
2021/04/03 05:36:51;;;;;;;30.13;6.40;;;6.10;76.70;;;;;;4936052;29;20127;-90
2021/04/03 05:39:17;;;;;;;31.57;6.40;;;6.10;76.20;;;;;;4936439;29;20062;-89
2021/04/03 05:41:42;;;;;;;32.70;7.10;;;6.10;76.30;;;;;;4937953;29;20054;-89
2021/04/03 05:44:10;;;;;;;33.13;6.67;;;6.10;76.40;;;;;;4934686;29;20486;-90
2021/04/03 05:46:39;;;;;;;35.23;6.77;;;6.10;76.60;;;;;;4934602;29;20035;-89
2021/04/03 05:49:05;;;;;;;30.65;6.68;;;6.10;76.40;;;;;;4934687;29;20035;-89
2021/04/03 05:51:30;;;;;;;30.93;7.50;;;6.20;76.30;;;;;;4935937;29;20024;-90
2021/04/03 05:53:59;;;;;;;32.10;7.27;;;6.20;76.50;;;;;;4934152;29;20051;-88
2021/04/03 05:56:26;;;;;;;31.13;7.35;;;6.20;76.50;;;;;;4932823;29;20119;-89
2021/04/03 05:58:52;;;;;;;29.20;8.07;;;6.20;76.70;;;;;;4935688;29;20028;-89
2021/04/03 06:01:18;;;;;;;28.23;5.77;;;6.20;76.70;;;;;;4934769;29;20024;-90
2021/04/03 06:03:43;;;;;;;32.97;7.50;;;6.20;76.60;;;;;;4935438;29;20482;-89
2021/04/03 06:06:09;;;;;;;32.40;7.00;;;6.30;78.10;;;;;;4934310;29;20051;-89
2021/04/03 06:08:35;;;;;;;32.20;6.27;;;6.30;76.60;;;;;;4934915;29;20020;-90
2021/04/03 06:11:16;;;;;;;31.87;6.93;;;6.30;76.50;;;;;;4934202;29;20028;-90
2021/04/03 06:14:01;;;;;;;30.27;6.17;;;6.30;77.30;;;;;;4935659;29;20032;-89
2021/04/03 06:16:39;;;;;;;29.43;6.50;;;6.30;78.00;;;;;;4933363;29;20023;-90
2021/04/03 06:19:19;;;;;;;36.30;8.07;;;6.40;76.40;;;;;;4934273;29;20051;-90
2021/04/03 06:21:52;;;;;;;39.00;7.53;;;6.40;76.70;;;;;;4934445;29;20032;-91
2021/04/03 06:24:20;;;;;;;26.07;6.80;;;6.30;76.70;;;;;;4934382;29;20035;-90
2021/04/03 06:26:53;;;;;;;35.80;7.87;;;6.30;76.80;;;;;;4933540;29;20024;-90
2021/04/03 06:29:49;;;;;;;33.77;7.57;;;6.20;77.10;;;;;;4934266;29;20062;-90
2021/04/03 06:32:32;;;;;;;33.83;7.30;;;6.20;78.50;;;;;;4933886;29;20035;-89
2021/04/03 06:34:59;;;;;;;37.70;7.37;;;6.20;78.00;;;;;;4934179;29;20118;-90
2021/04/03 06:37:30;;;;;;;32.90;6.90;;;6.30;77.40;;;;;;4935493;29;20047;-90
2021/04/03 06:40:04;;;;;;;27.57;6.70;;;6.30;77.40;;;;;;4934431;29;20501;-89
2021/04/03 06:42:42;;;;;;;33.63;6.67;;;6.30;77.40;;;;;;4933725;29;20055;-89
2021/04/03 06:45:28;;;;;;;32.37;7.37;;;6.30;77.50;;;;;;4934033;29;20042;-89
2021/04/03 06:48:01;;;;;;;30.87;7.50;;;6.30;77.40;;;;;;4936031;29;20024;-90
2021/04/03 06:50:28;;;;;;;30.57;8.03;;;6.30;77.80;;;;;;4937435;29;20123;-88
2021/04/03 06:52:55;;;;;;;32.10;7.30;;;6.30;77.90;;;;;;4937988;29;20040;-89
2021/04/03 06:55:23;;;;;;;31.40;7.10;;;6.20;78.60;;;;;;4936319;29;20118;-90
2021/04/03 06:57:49;;;;;;;30.17;7.30;;;6.20;78.40;;;;;;4936559;29;20039;-91
2021/04/03 07:00:18;;;;;;;33.43;7.43;;;6.20;78.20;;;;;;4937150;29;20023;-89
2021/04/03 07:03:01;;;;;;;34.17;7.75;;;6.20;78.10;;;;;;4937078;29;20051;-88
2021/04/03 07:05:32;;;;;;;37.60;8.00;;;6.30;78.70;;;;;;4936740;29;20573;-90
2021/04/03 07:08:08;;;;;;;33.87;8.20;;;6.20;78.30;;;;;;4936221;29;20032;-88
2021/04/03 07:10:38;;;;;;;29.30;7.70;;;6.20;78.30;;;;;;4936102;29;20020;-89
2021/04/03 07:13:06;;;;;;;29.37;7.93;;;6.20;78.30;;;;;;4939431;29;20127;-90
2021/04/03 07:15:32;;;;;;;35.77;7.47;;;6.30;78.30;;;;;;4938799;28;20031;-89
2021/04/03 07:17:58;;;;;;;35.00;8.70;;;6.30;78.20;;;;;;4956340;28;20762;-89
2021/04/03 07:20:26;;;;;;;30.33;7.63;;;6.30;78.10;;;;;;4939852;29;20507;-89
2021/04/03 07:23:05;;;;;;;26.33;6.57;;;6.30;78.30;;;;;;4939675;29;20034;-90
2021/04/03 07:25:40;;;;;;;26.63;7.07;;;6.30;79.20;;;;;;4939416;29;20098;-89
2021/04/03 07:28:06;;;;;;;33.13;7.30;;;6.30;79.10;;;;;;4939016;29;20027;-89
2021/04/03 07:30:34;;;;;;;28.27;6.90;;;6.40;78.70;;;;;;4940119;29;20045;-89
2021/04/03 07:33:16;;;;;;;33.30;7.40;;;6.40;78.10;;;;;;4940124;29;20023;-88
2021/04/03 07:35:52;;;;;;;25.87;6.37;;;6.50;78.00;;;;;;4939071;29;20031;-88
2021/04/03 07:38:20;;;;;;;26.33;6.73;;;6.60;78.00;;;;;;4957187;29;20032;-88
2021/04/03 07:40:50;;;;;;;28.90;7.00;;;6.60;78.00;;;;;;4941718;29;20054;-88
2021/04/03 07:43:46;;;;;;;37.47;7.93;;;6.60;77.80;;;;;;4942920;29;20027;-89
2021/04/03 07:46:19;;;;;;;28.43;7.40;;;6.60;79.60;;;;;;4961720;29;20040;-87
2021/04/03 07:48:51;;;;;;;30.33;7.03;;;6.60;78.30;;;;;;4974885;28;20074;-89
2021/04/03 07:51:39;;;;;;;34.13;8.83;;;6.70;77.70;;;;;;4979417;28;20026;-88
2021/04/03 07:54:05;;;;;;;31.27;7.20;;;6.70;78.60;;;;;;4941390;29;20031;-90
2021/04/03 07:56:52;;;;;;;28.87;7.57;;;6.80;77.90;;;;;;4936152;29;20031;-88
2021/04/03 07:59:18;;;;;;;30.80;7.23;;;6.90;77.50;;;;;;4937209;29;20613;-88
2021/04/03 08:01:47;;;;;;;34.07;7.07;;;6.90;77.60;;;;;;4937496;29;20032;-88
2021/04/03 08:04:13;;;;;;;;;;;6.90;77.20;;;;;;4936604;29;20031;-88
2021/04/03 08:06:40;;;;;;;30.50;6.03;;;7.00;77.60;;;;;;4936129;29;19907;-90
2021/04/03 08:09:14;;;;;;;26.10;7.13;;;7.00;77.20;;;;;;4935832;29;20028;-89
2021/04/03 08:11:42;;;;;;;28.23;6.40;;;7.00;77.10;;;;;;4936246;29;20084;-89
2021/04/03 08:14:10;;;;;;;29.67;6.77;;;7.10;77.10;;;;;;4935193;29;20087;-89
2021/04/03 08:16:37;;;;;;;33.17;7.30;;;7.10;77.00;;;;;;4936229;29;20028;-90
2021/04/03 08:19:02;;;;;;;27.03;6.30;;;7.10;77.20;;;;;;4935763;29;20437;-90
2021/04/03 08:21:39;;;;;;;28.00;7.40;;;7.20;77.10;;;;;;4936632;29;20028;-90
2021/04/03 08:24:11;;;;;;;32.97;6.90;;;7.20;77.30;;;;;;4935832;29;20031;-91
2021/04/03 08:26:39;;;;;;;29.67;6.73;;;7.30;78.90;;;;;;4935627;29;20493;-90
2021/04/03 08:29:07;;;;;;;28.50;6.55;;;7.40;78.10;;;;;;4920546;29;20020;-90
2021/04/03 08:31:34;;;;;;;25.40;6.23;;;7.50;76.60;;;;;;4936425;29;20398;-90
2021/04/03 08:34:03;;;;;;;25.40;7.83;;;7.60;76.40;;;;;;4935572;29;20024;-90
2021/04/03 08:36:32;;;;;;;31.33;8.20;;;7.70;77.90;;;;;;4935537;29;20054;-89
2021/04/03 08:39:02;;;;;;;30.43;6.23;;;7.70;77.40;;;;;;4936726;29;20439;-89
2021/04/03 08:41:29;;;;;;;30.60;8.17;;;7.80;76.00;;;;;;4935909;29;20035;-89
2021/04/03 08:43:56;;;;;;;26.70;6.60;;;7.80;75.70;;;;;;4936902;29;20034;-89
2021/04/03 08:46:23;;;;;;;32.43;7.50;;;7.80;75.60;;;;;;4941664;29;20031;-89
2021/04/03 08:48:57;;;;;;;28.97;6.80;;;7.90;76.00;;;;;;4938341;29;20035;-89
2021/04/03 08:51:23;;;;;;;27.03;6.87;;;7.90;75.50;;;;;;4938405;29;20114;-89
2021/04/03 08:53:52;;;;;;;25.17;6.00;;;8.00;75.30;;;;;;4937931;29;20063;-89
2021/04/03 08:56:35;;;;;;;32.97;6.50;;;8.10;75.20;;;;;;4938788;29;20038;-89
2021/04/03 08:59:06;;;;;;;25.40;6.30;;;8.20;75.10;;;;;;4938675;29;20039;-89
2021/04/03 09:01:35;;;;;;;28.20;6.70;;;8.40;74.70;;;;;;4939615;29;20048;-90
2021/04/03 09:04:07;;;;;;;27.10;6.20;;;8.50;74.20;;;;;;4955491;29;20051;-89
2021/04/03 09:06:39;;;;;;;30.17;6.47;;;8.70;75.00;;;;;;4939554;29;20620;-89
2021/04/03 09:09:17;;;;;;;28.90;7.57;;;9.00;74.00;;;;;;4955638;28;20031;-90
2021/04/03 09:12:03;;;;;;;49.53;7.37;;;9.20;73.40;;;;;;4952834;28;20046;-89
2021/04/03 09:14:35;;;;;;;78.87;8.43;;;9.40;72.30;;;;;;4975521;28;20485;-89
2021/04/03 09:17:03;;;;;;;40.25;6.82;;;9.50;72.00;;;;;;4946078;29;20030;-90
2021/04/03 09:19:31;;;;;;;25.13;5.90;;;9.70;71.50;;;;;;4937984;29;20023;-90
2021/04/03 09:21:57;;;;;;;29.30;6.13;;;9.80;71.10;;;;;;4938245;29;20024;-88
2021/04/03 09:24:44;;;;;;;43.30;6.83;;;9.90;70.90;;;;;;4954521;29;20031;-89
2021/04/03 09:27:20;;;;;;;28.03;6.67;;;10.10;70.60;;;;;;4953473;29;20106;-89
2021/04/03 09:30:13;;;;;;;28.63;6.73;;;10.20;70.20;;;;;;4953331;29;20074;-89
2021/04/03 09:32:47;;;;;;;22.70;6.40;;;10.40;70.30;;;;;;4953096;29;20114;-89
2021/04/03 09:35:26;;;;;;;26.33;5.90;;;10.50;69.60;;;;;;4952357;29;20031;-89
2021/04/03 09:37:56;;;;;;;24.25;5.88;;;10.60;69.30;;;;;;4936931;29;20035;-89
2021/04/03 09:40:32;;;;;;;;;;;10.70;69.00;;;;;;4937051;29;20038;-91
2021/04/03 09:42:58;;;;;;;22.80;5.57;;;10.70;69.00;;;;;;4936746;29;19910;-89
2021/04/03 09:45:23;;;;;;;26.67;5.80;;;10.80;69.50;;;;;;4953488;29;20058;-89
2021/04/03 09:47:49;;;;;;;21.35;5.38;;;10.90;68.60;;;;;;4954149;29;20035;-89
2021/04/03 09:50:14;;;;;;;22.50;5.57;;;11.00;68.30;;;;;;4954357;29;20106;-89
2021/04/03 09:52:40;;;;;;;25.90;5.45;;;11.10;68.00;;;;;;4937088;29;20059;-90
2021/04/03 09:55:06;;;;;;;26.20;5.78;;;11.10;67.50;;;;;;4936681;29;20059;-89
2021/04/03 09:57:32;;;;;;;24.83;4.97;;;11.20;67.50;;;;;;4937098;29;20102;-90
2021/04/03 09:59:57;;;;;;;23.17;5.60;;;11.30;67.30;;;;;;4936822;29;20572;-89
2021/04/03 10:02:23;;;;;;;25.80;5.30;;;11.40;67.00;;;;;;4936977;29;20077;-89
2021/04/03 10:04:48;;;;;;;22.27;5.45;;;11.50;66.80;;;;;;4936575;29;20023;-89
2021/04/03 10:07:14;;;;;;;25.05;5.50;;;11.50;66.50;;;;;;4936277;29;20027;-89
2021/04/03 10:09:40;;;;;;;23.73;5.50;;;11.50;66.50;;;;;;4936558;29;20063;-90
2021/04/03 10:12:05;;;;;;;21.98;5.50;;;11.60;66.40;;;;;;4936847;29;20043;-89
2021/04/03 10:14:31;;;;;;;21.52;5.13;;;11.70;65.90;;;;;;4936572;29;20033;-88
2021/04/03 10:16:56;;;;;;;23.95;5.15;;;11.70;65.90;;;;;;4936455;29;20031;-89
2021/04/03 10:19:22;;;;;;;22.73;4.90;;;11.80;66.00;;;;;;4953606;28;20035;-89
2021/04/03 10:21:48;;;;;;;19.55;4.60;;;11.80;65.40;;;;;;4940107;29;20027;-89
2021/04/03 10:24:13;;;;;;;21.20;5.20;;;11.90;65.70;;;;;;4956626;29;20119;-90
2021/04/03 10:26:39;;;;;;;24.15;5.15;;;11.90;64.90;;;;;;4953769;29;20027;-90
2021/04/03 10:29:05;;;;;;;20.33;4.68;;;12.00;65.10;;;;;;4963117;29;20035;-89
2021/04/03 10:31:30;;;;;;;22.77;5.07;;;12.10;65.00;;;;;;4962556;29;20036;-89
2021/04/03 10:33:56;;;;;;;16.48;4.38;;;12.20;64.90;;;;;;4959923;29;20067;-89
2021/04/03 10:36:22;;;;;;;18.17;4.63;;;12.30;63.60;;;;;;4944899;29;20055;-89
2021/04/03 10:38:47;;;;;;;18.70;4.78;;;12.30;63.80;;;;;;4957373;29;20043;-89
2021/04/03 10:41:16;;;;;;;22.67;5.25;;;12.30;63.50;;;;;;4940138;29;20082;-89
2021/04/03 10:43:42;;;;;;;19.52;5.15;;;12.40;63.90;;;;;;4940502;29;20030;-89
2021/04/03 10:46:07;;;;;;;19.25;4.47;;;12.40;63.70;;;;;;4939520;29;20078;-89
2021/04/03 10:48:34;;;;;;;22.25;5.00;;;12.40;63.40;;;;;;4939741;29;20027;-89
2021/04/03 10:51:00;;;;;;;22.90;4.55;;;12.40;63.80;;;;;;4939631;29;20473;-90
2021/04/03 10:53:27;;;;;;;20.48;4.80;;;12.40;63.80;;;;;;4939633;29;20027;-90
2021/04/03 10:55:53;;;;;;;20.55;5.03;;;12.40;63.40;;;;;;4938330;29;20386;-90
2021/04/03 10:58:19;;;;;;;17.92;4.57;;;12.50;63.70;;;;;;4939178;29;20038;-89
2021/04/03 11:00:44;;;;;;;20.17;4.53;;;12.50;63.40;;;;;;4955999;29;20030;-90
2021/04/03 11:03:10;;;;;;;21.80;4.40;;;12.50;63.00;;;;;;4939604;29;20029;-90
2021/04/03 11:05:36;;;;;;;18.50;4.25;;;12.50;63.40;;;;;;4939627;29;20032;-90
2021/04/03 11:08:03;;;;;;;15.63;3.67;;;12.60;63.00;;;;;;4939677;29;20114;-89
2021/04/03 11:10:30;;;;;;;17.95;3.90;;;12.60;62.60;;;;;;4956429;29;20597;-89
2021/04/03 11:12:55;;;;;;;14.32;3.45;;;12.50;62.30;;;;;;4939198;29;20138;-89
2021/04/03 11:15:21;;;;;;;17.10;4.05;;;12.50;62.60;;;;;;4938536;29;20442;-89
2021/04/03 11:17:47;;;;;;;17.85;3.83;;;12.50;61.40;;;;;;4942855;29;20118;-90
2021/04/03 11:20:13;;;;;;;18.45;4.68;;;12.60;62.50;;;;;;4955098;29;20031;-89
2021/04/03 11:22:40;;;;;;;17.67;3.95;;;12.60;60.90;;;;;;4951612;29;20288;-88
2021/04/03 11:25:06;;;;;;;16.98;3.95;;;12.60;60.20;;;;;;4939184;29;20032;-89
2021/04/03 11:27:32;;;;;;;17.48;3.47;;;12.60;60.50;;;;;;4938596;29;20512;-89
2021/04/03 11:29:58;;;;;;;15.93;3.33;;;12.50;61.20;;;;;;4939587;29;20031;-89
2021/04/03 11:32:23;;;;;;;19.02;3.85;;;12.40;61.00;;;;;;4938663;29;20520;-90
2021/04/03 11:34:49;;;;;;;17.13;3.60;;;12.40;60.10;;;;;;4939323;29;20035;-89
2021/04/03 11:37:14;;;;;;;13.80;2.75;;;12.40;60.80;;;;;;4939796;29;20034;-90
2021/04/03 11:39:40;;;;;;;17.15;3.85;;;12.40;60.90;;;;;;4938890;29;20039;-89
2021/04/03 11:42:06;;;;;;;16.83;3.70;;;12.50;58.80;;;;;;4955732;29;20035;-89
2021/04/03 11:44:32;;;;;;;15.05;3.33;;;12.50;59.50;;;;;;4938266;29;20031;-89
2021/04/03 11:46:58;;;;;;;12.38;2.95;;;12.50;60.50;;;;;;4927740;29;20031;-89
2021/04/03 11:49:25;;;;;;;11.98;3.17;;;12.50;60.30;;;;;;4920559;29;20043;-88
2021/04/03 11:51:51;;;;;;;14.48;3.72;;;12.50;59.40;;;;;;4919415;29;20034;-90
2021/04/03 11:54:17;;;;;;;9.38;2.58;;;12.50;57.60;;;;;;4936279;29;20423;-90
2021/04/03 11:56:43;;;;;;;10.10;2.42;;;12.50;58.10;;;;;;4936315;29;20051;-89
2021/04/03 11:59:09;;;;;;;14.35;2.83;;;12.50;58.20;;;;;;4918971;29;20119;-89
2021/04/03 12:01:34;;;;;;;13.48;2.63;;;12.50;58.70;;;;;;4919222;29;20123;-89
2021/04/03 12:04:00;;;;;;;12.15;2.70;;;12.60;58.40;;;;;;4919453;29;20059;-89
2021/04/03 12:06:26;;;;;;;10.23;2.85;;;12.50;56.20;;;;;;4941380;29;20039;-89
2021/04/03 12:08:51;;;;;;;10.23;2.30;;;12.60;57.80;;;;;;4938350;29;20034;-90
2021/04/03 12:11:17;;;;;;;11.60;2.38;;;12.50;52.90;;;;;;4938062;28;20114;-88
2021/04/03 12:13:42;;;;;;;9.60;2.38;;;12.50;56.10;;;;;;4934740;29;20039;-90
2021/04/03 12:16:08;;;;;;;10.82;2.25;;;12.60;56.80;;;;;;4933938;29;20028;-89
2021/04/03 12:18:33;;;;;;;14.40;3.15;;;12.60;57.00;;;;;;4934931;29;20059;-90
2021/04/03 12:20:59;;;;;;;10.20;2.53;;;12.80;56.80;;;;;;4935985;29;20035;-89
2021/04/03 12:23:24;;;;;;;9.32;2.55;;;12.90;56.80;;;;;;4934463;29;20039;-89
2021/04/03 12:25:50;;;;;;;13.20;2.72;;;12.90;56.30;;;;;;4934834;29;20035;-89
2021/04/03 12:28:16;;;;;;;11.07;2.35;;;12.80;55.50;;;;;;4935921;29;20028;-89
2021/04/03 12:30:41;;;;;;;11.43;2.30;;;12.80;55.70;;;;;;4934498;29;20123;-88
2021/04/03 12:33:07;;;;;;;7.72;1.92;;;12.80;55.20;;;;;;4936559;29;20034;-90
2021/04/03 12:35:32;;;;;;;6.97;2.10;;;13.00;56.90;;;;;;4935482;29;20517;-89
2021/04/03 12:37:58;;;;;;;11.13;2.78;;;13.10;54.60;;;;;;4934156;29;20066;-90
2021/04/03 12:40:24;;;;;;;8.32;2.22;;;13.20;54.20;;;;;;4934549;29;20039;-89
2021/04/03 12:42:49;;;;;;;14.52;2.85;;;13.30;54.90;;;;;;4934492;29;20043;-88
2021/04/03 12:45:15;;;;;;;13.32;2.55;;;13.30;54.60;;;;;;4933634;29;20039;-88
2021/04/03 12:47:41;;;;;;;10.30;2.00;;;13.20;54.40;;;;;;4934911;29;20087;-89
2021/04/03 12:50:08;;;;;;;6.57;1.85;;;13.30;54.20;;;;;;4934832;29;20039;-89
2021/04/03 12:52:35;;;;;;;12.02;1.88;;;13.20;53.70;;;;;;4935604;29;20054;-89